AGROMETEOROLOŠKI PORTAL

vinorodna pokrajina

Temelj dobrega kmetovanja

Pregled podatkov za lokacijo HOČKO POHORJE - ARSO, meteorološka postaja 154

Pregled senzorjev na lokaciji

ID Ime Zadnja
vrednost
Datum in čas
meritve
(lokalni čas)
Tip
senzorja
5942 Padavine (mm) 0 mm 28.1.2023 07:30 ARSO
5944 Relativna zračna vlaga (2 m) (% RH) 83 % RH 28.1.2023 07:30 ARSO
5943 Temperatura (2 m) (°C) -3,1 °C 28.1.2023 07:30 ARSO

Pregled podatkov zadnjih 24 ur

Zap.
št.
Datum in čas
(lokalni čas)
HOČKO POHORJE - ARSO
Padavine Relativna
zračna
vlaga
(2
m)
Temperatura
(2
m)
1 28.1.2023 07:30 0 83 -3,1
2 28.1.2023 07:00 0 84,3 -3,1
3 28.1.2023 06:30 0 85 -3
4 28.1.2023 06:00 0 86 -3
5 28.1.2023 05:30 0 89 -3,2
6 28.1.2023 05:00 0 90 -3,3
7 28.1.2023 04:30 0 90 -3,3
8 28.1.2023 04:00 0 90 -3,4
9 28.1.2023 03:30 0 90,7 -3,5
10 28.1.2023 03:00 0 91,7 -3,8
11 28.1.2023 02:30 0 92 -4,2
12 28.1.2023 02:00 0 92 -4,3
13 28.1.2023 01:30 0 91 -4,1
14 28.1.2023 01:00 0 88,3 -3,6
15 28.1.2023 00:30 0 89 -3,7
16 28.1.2023 00:00 0 87,3 -3,7
17 27.1.2023 23:30 0 86 -3,3
18 27.1.2023 23:00 0 86,7 -3,3
19 27.1.2023 22:30 0 87 -3,3
20 27.1.2023 22:00 0 87,3 -3,4
21 27.1.2023 21:30 0,1 89 -3,3
22 27.1.2023 21:00 0,2 92 -3,3
23 27.1.2023 20:30 0,3 95,7 -3,4
24 27.1.2023 20:00 0,2 93,7 -3,3
25 27.1.2023 19:30 0,1 90,3 -3,2
26 27.1.2023 19:00 0,1 88,7 -3,1
27 27.1.2023 18:30 0,3 91,3 -3,1
28 27.1.2023 18:00 0,3 90,3 -3
29 27.1.2023 17:30 0,1 87,7 -3
30 27.1.2023 17:00 0,1 88 -2,9
31 27.1.2023 16:30 0 85 -2,8
32 27.1.2023 16:00 0 84,3 -2,6
33 27.1.2023 15:30 0 85 -2,3
34 27.1.2023 15:00 0 78 -1,9
35 27.1.2023 14:30 0 76,3 -1,9
36 27.1.2023 14:00 0 77,3 -2,1
37 27.1.2023 13:30 0 77,3 -2,2
38 27.1.2023 13:00 0 79,7 -2,3
39 27.1.2023 12:30 0 81,7 -2,4
40 27.1.2023 12:00 0 83,3 -2,6
41 27.1.2023 11:30 0 84 -2,6
42 27.1.2023 11:00 0 83,3 -2,5
43 27.1.2023 10:30 0 84,7 -2,7
44 27.1.2023 10:00 0 85 -2,8
45 27.1.2023 09:30 0 84,7 -2,7
46 27.1.2023 09:00 0 84,3 -2,8
47 27.1.2023 08:30 0 84 -2,8
48 27.1.2023 08:00 0 85,3 -2,8